sensor_id;sensor_type;location;lat;lon;timestamp;P1;durP1;ratioP1;P2;durP2;ratioP2
39728;SDS011;25402;42.004;23.088;2024-03-23T00:54:35;20.40;;;8.65;;
39728;SDS011;25402;42.004;23.088;2024-03-23T00:57:03;16.42;;;7.05;;
39728;SDS011;25402;42.004;23.088;2024-03-23T00:59:29;15.23;;;7.03;;
39728;SDS011;25402;42.004;23.088;2024-03-23T01:01:56;14.00;;;7.55;;
39728;SDS011;25402;42.004;23.088;2024-03-23T01:04:22;17.10;;;6.35;;
39728;SDS011;25402;42.004;23.088;2024-03-23T01:06:49;14.70;;;6.82;;
39728;SDS011;25402;42.004;23.088;2024-03-23T01:09:15;12.15;;;6.57;;
39728;SDS011;25402;42.004;23.088;2024-03-23T01:11:44;13.68;;;6.70;;
39728;SDS011;25402;42.004;23.088;2024-03-23T01:14:10;10.57;;;6.25;;
39728;SDS011;25402;42.004;23.088;2024-03-23T01:16:37;16.30;;;7.53;;
39728;SDS011;25402;42.004;23.088;2024-03-23T01:19:03;14.82;;;7.32;;
39728;SDS011;25402;42.004;23.088;2024-03-23T01:21:31;16.48;;;6.97;;
39728;SDS011;25402;42.004;23.088;2024-03-23T01:23:57;14.05;;;6.55;;
39728;SDS011;25402;42.004;23.088;2024-03-23T01:26:24;16.05;;;7.18;;
39728;SDS011;25402;42.004;23.088;2024-03-23T01:28:51;13.35;;;7.18;;
39728;SDS011;25402;42.004;23.088;2024-03-23T01:31:18;17.30;;;8.10;;
39728;SDS011;25402;42.004;23.088;2024-03-23T01:33:44;15.65;;;7.30;;
39728;SDS011;25402;42.004;23.088;2024-03-23T01:36:11;14.48;;;7.32;;
39728;SDS011;25402;42.004;23.088;2024-03-23T01:38:38;14.90;;;7.40;;
39728;SDS011;25402;42.004;23.088;2024-03-23T01:41:05;14.93;;;7.78;;
39728;SDS011;25402;42.004;23.088;2024-03-23T01:43:31;13.18;;;6.68;;
39728;SDS011;25402;42.004;23.088;2024-03-23T01:45:59;15.95;;;6.90;;
39728;SDS011;25402;42.004;23.088;2024-03-23T01:48:25;16.35;;;7.53;;
39728;SDS011;25402;42.004;23.088;2024-03-23T01:50:53;13.45;;;7.00;;
39728;SDS011;25402;42.004;23.088;2024-03-23T01:53:19;13.30;;;7.50;;
39728;SDS011;25402;42.004;23.088;2024-03-23T01:55:48;17.50;;;8.13;;
39728;SDS011;25402;42.004;23.088;2024-03-23T01:58:16;14.18;;;7.03;;
39728;SDS011;25402;42.004;23.088;2024-03-23T02:00:43;14.30;;;7.85;;
39728;SDS011;25402;42.004;23.088;2024-03-23T02:03:23;18.95;;;8.20;;
39728;SDS011;25402;42.004;23.088;2024-03-23T02:05:51;17.92;;;8.63;;
39728;SDS011;25402;42.004;23.088;2024-03-23T02:08:18;20.05;;;8.88;;
39728;SDS011;25402;42.004;23.088;2024-03-23T02:10:46;13.93;;;7.88;;
39728;SDS011;25402;42.004;23.088;2024-03-23T02:13:14;24.98;;;7.93;;
39728;SDS011;25402;42.004;23.088;2024-03-23T02:15:42;15.70;;;7.47;;
39728;SDS011;25402;42.004;23.088;2024-03-23T02:18:08;21.15;;;7.95;;
39728;SDS011;25402;42.004;23.088;2024-03-23T02:20:37;15.45;;;7.20;;
39728;SDS011;25402;42.004;23.088;2024-03-23T02:23:05;14.43;;;6.82;;
39728;SDS011;25402;42.004;23.088;2024-03-23T02:25:39;14.23;;;7.18;;
39728;SDS011;25402;42.004;23.088;2024-03-23T02:28:05;14.48;;;6.90;;
39728;SDS011;25402;42.004;23.088;2024-03-23T02:30:33;14.30;;;6.82;;
39728;SDS011;25402;42.004;23.088;2024-03-23T02:32:59;9.70;;;5.50;;
39728;SDS011;25402;42.004;23.088;2024-03-23T02:35:27;9.50;;;5.05;;
39728;SDS011;25402;42.004;23.088;2024-03-23T02:37:55;11.65;;;6.22;;
39728;SDS011;25402;42.004;23.088;2024-03-23T02:40:27;10.88;;;5.45;;
39728;SDS011;25402;42.004;23.088;2024-03-23T02:42:55;13.05;;;5.90;;
39728;SDS011;25402;42.004;23.088;2024-03-23T02:45:22;10.52;;;5.15;;
39728;SDS011;25402;42.004;23.088;2024-03-23T02:47:48;11.50;;;5.72;;
39728;SDS011;25402;42.004;23.088;2024-03-23T02:50:17;12.23;;;5.30;;
39728;SDS011;25402;42.004;23.088;2024-03-23T02:52:43;10.57;;;6.00;;
39728;SDS011;25402;42.004;23.088;2024-03-23T02:55:11;12.85;;;6.78;;
39728;SDS011;25402;42.004;23.088;2024-03-23T02:57:39;13.88;;;6.78;;
39728;SDS011;25402;42.004;23.088;2024-03-23T03:00:07;19.58;;;7.28;;
39728;SDS011;25402;42.004;23.088;2024-03-23T03:02:35;14.00;;;7.50;;
39728;SDS011;25402;42.004;23.088;2024-03-23T03:05:03;15.43;;;6.88;;
39728;SDS011;25402;42.004;23.088;2024-03-23T03:07:30;14.25;;;6.40;;
39728;SDS011;25402;42.004;23.088;2024-03-23T03:09:57;11.57;;;6.47;;
39728;SDS011;25402;42.004;23.088;2024-03-23T03:12:23;17.45;;;7.38;;
39728;SDS011;25402;42.004;23.088;2024-03-23T03:14:52;13.55;;;6.65;;
39728;SDS011;25402;42.004;23.088;2024-03-23T03:17:18;14.18;;;7.00;;
39728;SDS011;25402;42.004;23.088;2024-03-23T03:19:45;29.77;;;7.30;;
39728;SDS011;25402;42.004;23.088;2024-03-23T03:22:12;19.63;;;7.75;;
39728;SDS011;25402;42.004;23.088;2024-03-23T03:24:39;22.88;;;7.45;;
39728;SDS011;25402;42.004;23.088;2024-03-23T03:27:06;15.77;;;7.32;;
39728;SDS011;25402;42.004;23.088;2024-03-23T03:29:36;19.30;;;7.88;;
39728;SDS011;25402;42.004;23.088;2024-03-23T03:32:04;13.10;;;7.07;;
39728;SDS011;25402;42.004;23.088;2024-03-23T03:34:31;14.27;;;7.32;;
39728;SDS011;25402;42.004;23.088;2024-03-23T03:36:57;16.40;;;7.28;;
39728;SDS011;25402;42.004;23.088;2024-03-23T03:39:24;41.08;;;8.00;;
39728;SDS011;25402;42.004;23.088;2024-03-23T03:41:51;14.85;;;7.55;;
39728;SDS011;25402;42.004;23.088;2024-03-23T03:44:18;14.30;;;7.10;;
39728;SDS011;25402;42.004;23.088;2024-03-23T03:46:44;16.95;;;7.60;;
39728;SDS011;25402;42.004;23.088;2024-03-23T03:49:13;25.02;;;8.55;;
39728;SDS011;25402;42.004;23.088;2024-03-23T03:51:39;22.23;;;9.75;;
39728;SDS011;25402;42.004;23.088;2024-03-23T03:54:06;34.38;;;10.10;;
39728;SDS011;25402;42.004;23.088;2024-03-23T03:56:32;30.27;;;10.18;;
39728;SDS011;25402;42.004;23.088;2024-03-23T03:58:59;123.57;;;29.85;;
39728;SDS011;25402;42.004;23.088;2024-03-23T04:01:25;81.72;;;16.27;;
39728;SDS011;25402;42.004;23.088;2024-03-23T04:03:52;36.55;;;8.52;;
39728;SDS011;25402;42.004;23.088;2024-03-23T04:06:20;23.88;;;8.73;;
39728;SDS011;25402;42.004;23.088;2024-03-23T04:08:47;20.17;;;8.65;;
39728;SDS011;25402;42.004;23.088;2024-03-23T04:11:13;18.08;;;8.60;;
39728;SDS011;25402;42.004;23.088;2024-03-23T04:13:40;19.80;;;8.63;;
39728;SDS011;25402;42.004;23.088;2024-03-23T04:16:08;21.48;;;8.60;;
39728;SDS011;25402;42.004;23.088;2024-03-23T04:18:35;27.05;;;7.90;;
39728;SDS011;25402;42.004;23.088;2024-03-23T04:21:01;19.35;;;7.82;;
39728;SDS011;25402;42.004;23.088;2024-03-23T04:23:30;24.23;;;8.07;;
39728;SDS011;25402;42.004;23.088;2024-03-23T04:25:57;14.38;;;7.85;;
39728;SDS011;25402;42.004;23.088;2024-03-23T04:28:30;17.92;;;8.55;;
39728;SDS011;25402;42.004;23.088;2024-03-23T04:30:56;17.38;;;7.97;;
39728;SDS011;25402;42.004;23.088;2024-03-23T04:33:24;21.83;;;8.35;;
39728;SDS011;25402;42.004;23.088;2024-03-23T04:35:50;15.35;;;8.32;;
39728;SDS011;25402;42.004;23.088;2024-03-23T04:38:18;22.92;;;8.40;;
39728;SDS011;25402;42.004;23.088;2024-03-23T04:40:47;17.42;;;8.00;;
39728;SDS011;25402;42.004;23.088;2024-03-23T04:43:20;22.55;;;7.63;;
39728;SDS011;25402;42.004;23.088;2024-03-23T04:45:47;12.80;;;7.10;;
39728;SDS011;25402;42.004;23.088;2024-03-23T04:48:15;13.95;;;7.40;;
39728;SDS011;25402;42.004;23.088;2024-03-23T04:50:42;17.30;;;7.65;;
39728;SDS011;25402;42.004;23.088;2024-03-23T04:53:09;28.63;;;8.07;;
39728;SDS011;25402;42.004;23.088;2024-03-23T04:55:36;19.95;;;8.13;;
39728;SDS011;25402;42.004;23.088;2024-03-23T04:58:06;21.42;;;8.73;;
39728;SDS011;25402;42.004;23.088;2024-03-23T05:00:33;25.48;;;8.65;;
39728;SDS011;25402;42.004;23.088;2024-03-23T05:03:00;18.45;;;7.43;;
39728;SDS011;25402;42.004;23.088;2024-03-23T05:05:29;22.55;;;7.82;;
39728;SDS011;25402;42.004;23.088;2024-03-23T05:07:57;20.48;;;9.05;;
39728;SDS011;25402;42.004;23.088;2024-03-23T05:10:23;17.67;;;9.18;;
39728;SDS011;25402;42.004;23.088;2024-03-23T05:12:50;30.73;;;14.07;;
39728;SDS011;25402;42.004;23.088;2024-03-23T05:15:19;45.90;;;20.98;;
39728;SDS011;25402;42.004;23.088;2024-03-23T05:17:46;27.52;;;13.13;;
39728;SDS011;25402;42.004;23.088;2024-03-23T05:20:14;31.98;;;14.88;;
39728;SDS011;25402;42.004;23.088;2024-03-23T05:22:44;43.50;;;18.33;;
39728;SDS011;25402;42.004;23.088;2024-03-23T05:25:12;28.48;;;10.55;;
39728;SDS011;25402;42.004;23.088;2024-03-23T05:27:38;32.85;;;11.80;;
39728;SDS011;25402;42.004;23.088;2024-03-23T05:30:06;18.80;;;11.57;;
39728;SDS011;25402;42.004;23.088;2024-03-23T05:32:35;30.30;;;12.60;;
39728;SDS011;25402;42.004;23.088;2024-03-23T05:35:06;37.28;;;12.93;;
39728;SDS011;25402;42.004;23.088;2024-03-23T05:37:33;37.13;;;13.43;;
39728;SDS011;25402;42.004;23.088;2024-03-23T05:40:02;32.55;;;15.32;;
39728;SDS011;25402;42.004;23.088;2024-03-23T05:42:29;54.70;;;19.50;;
39728;SDS011;25402;42.004;23.088;2024-03-23T05:44:57;43.70;;;16.85;;
39728;SDS011;25402;42.004;23.088;2024-03-23T05:47:24;30.23;;;12.43;;
39728;SDS011;25402;42.004;23.088;2024-03-23T05:49:58;23.10;;;11.07;;
39728;SDS011;25402;42.004;23.088;2024-03-23T05:52:24;17.42;;;10.27;;
39728;SDS011;25402;42.004;23.088;2024-03-23T05:54:52;20.30;;;10.10;;
39728;SDS011;25402;42.004;23.088;2024-03-23T05:57:20;24.38;;;9.70;;
39728;SDS011;25402;42.004;23.088;2024-03-23T05:59:47;20.20;;;10.13;;
39728;SDS011;25402;42.004;23.088;2024-03-23T06:02:13;22.05;;;10.02;;
39728;SDS011;25402;42.004;23.088;2024-03-23T06:04:40;20.17;;;9.80;;
39728;SDS011;25402;42.004;23.088;2024-03-23T06:07:08;27.13;;;10.32;;
39728;SDS011;25402;42.004;23.088;2024-03-23T06:09:39;23.95;;;10.30;;
39728;SDS011;25402;42.004;23.088;2024-03-23T06:12:05;24.33;;;11.13;;
39728;SDS011;25402;42.004;23.088;2024-03-23T06:14:32;20.58;;;9.68;;
39728;SDS011;25402;42.004;23.088;2024-03-23T06:16:58;24.92;;;10.82;;
39728;SDS011;25402;42.004;23.088;2024-03-23T06:19:26;23.17;;;12.68;;
39728;SDS011;25402;42.004;23.088;2024-03-23T06:21:53;19.70;;;10.20;;
39728;SDS011;25402;42.004;23.088;2024-03-23T06:24:21;91.30;;;12.75;;
39728;SDS011;25402;42.004;23.088;2024-03-23T06:26:48;27.40;;;12.35;;
39728;SDS011;25402;42.004;23.088;2024-03-23T06:29:15;70.13;;;11.98;;
39728;SDS011;25402;42.004;23.088;2024-03-23T06:31:41;36.30;;;9.95;;
39728;SDS011;25402;42.004;23.088;2024-03-23T06:34:08;22.25;;;8.35;;
39728;SDS011;25402;42.004;23.088;2024-03-23T06:36:35;19.58;;;8.60;;
39728;SDS011;25402;42.004;23.088;2024-03-23T06:39:03;16.52;;;8.68;;
39728;SDS011;25402;42.004;23.088;2024-03-23T06:41:31;21.55;;;8.55;;
39728;SDS011;25402;42.004;23.088;2024-03-23T06:43:58;15.82;;;7.95;;
39728;SDS011;25402;42.004;23.088;2024-03-23T06:46:25;15.60;;;7.70;;
39728;SDS011;25402;42.004;23.088;2024-03-23T06:48:53;16.70;;;8.52;;
39728;SDS011;25402;42.004;23.088;2024-03-23T06:51:19;18.15;;;7.60;;
39728;SDS011;25402;42.004;23.088;2024-03-23T06:53:46;14.95;;;7.82;;
39728;SDS011;25402;42.004;23.088;2024-03-23T06:56:12;18.48;;;8.38;;
39728;SDS011;25402;42.004;23.088;2024-03-23T06:58:41;16.70;;;8.40;;
39728;SDS011;25402;42.004;23.088;2024-03-23T07:01:07;17.77;;;7.65;;
39728;SDS011;25402;42.004;23.088;2024-03-23T07:03:34;13.95;;;7.40;;
39728;SDS011;25402;42.004;23.088;2024-03-23T07:06:00;19.13;;;9.40;;
39728;SDS011;25402;42.004;23.088;2024-03-23T07:08:27;15.15;;;7.88;;
39728;SDS011;25402;42.004;23.088;2024-03-23T07:10:53;15.13;;;7.82;;
39728;SDS011;25402;42.004;23.088;2024-03-23T07:13:20;14.68;;;6.95;;
39728;SDS011;25402;42.004;23.088;2024-03-23T07:15:52;15.45;;;7.78;;
39728;SDS011;25402;42.004;23.088;2024-03-23T07:18:20;31.98;;;7.88;;
39728;SDS011;25402;42.004;23.088;2024-03-23T07:20:51;18.10;;;7.60;;
39728;SDS011;25402;42.004;23.088;2024-03-23T07:23:19;14.05;;;7.40;;
39728;SDS011;25402;42.004;23.088;2024-03-23T07:25:45;15.38;;;8.15;;
39728;SDS011;25402;42.004;23.088;2024-03-23T07:28:22;15.60;;;7.90;;
39728;SDS011;25402;42.004;23.088;2024-03-23T07:30:48;13.93;;;7.85;;
39728;SDS011;25402;42.004;23.088;2024-03-23T07:33:26;11.77;;;7.28;;
39728;SDS011;25402;42.004;23.088;2024-03-23T07:35:52;14.52;;;7.05;;
39728;SDS011;25402;42.004;23.088;2024-03-23T07:38:19;11.48;;;7.25;;
39728;SDS011;25402;42.004;23.088;2024-03-23T07:40:45;10.32;;;7.32;;
39728;SDS011;25402;42.004;23.088;2024-03-23T07:43:15;11.55;;;7.05;;
39728;SDS011;25402;42.004;23.088;2024-03-23T07:45:41;22.35;;;8.43;;
39728;SDS011;25402;42.004;23.088;2024-03-23T07:48:08;17.55;;;7.78;;
39728;SDS011;25402;42.004;23.088;2024-03-23T07:50:36;16.75;;;8.90;;
39728;SDS011;25402;42.004;23.088;2024-03-23T07:53:03;17.83;;;8.23;;
39728;SDS011;25402;42.004;23.088;2024-03-23T07:55:29;20.00;;;8.48;;
39728;SDS011;25402;42.004;23.088;2024-03-23T07:57:58;11.40;;;6.70;;
39728;SDS011;25402;42.004;23.088;2024-03-23T08:00:24;10.90;;;6.70;;
39728;SDS011;25402;42.004;23.088;2024-03-23T08:02:51;19.00;;;7.72;;
39728;SDS011;25402;42.004;23.088;2024-03-23T08:05:17;14.48;;;7.50;;
39728;SDS011;25402;42.004;23.088;2024-03-23T08:07:48;22.23;;;8.60;;
39728;SDS011;25402;42.004;23.088;2024-03-23T08:10:16;70.93;;;10.90;;
39728;SDS011;25402;42.004;23.088;2024-03-23T08:12:45;25.45;;;9.10;;
39728;SDS011;25402;42.004;23.088;2024-03-23T08:15:12;17.95;;;7.35;;
39728;SDS011;25402;42.004;23.088;2024-03-23T08:17:39;48.55;;;17.83;;
39728;SDS011;25402;42.004;23.088;2024-03-23T08:20:07;115.10;;;35.92;;
39728;SDS011;25402;42.004;23.088;2024-03-23T08:22:33;72.05;;;24.77;;
39728;SDS011;25402;42.004;23.088;2024-03-23T08:25:03;70.28;;;22.55;;
39728;SDS011;25402;42.004;23.088;2024-03-23T08:27:30;33.30;;;12.98;;
39728;SDS011;25402;42.004;23.088;2024-03-23T08:29:58;40.08;;;13.93;;
39728;SDS011;25402;42.004;23.088;2024-03-23T08:32:24;41.10;;;15.88;;
39728;SDS011;25402;42.004;23.088;2024-03-23T08:34:51;28.35;;;12.68;;
39728;SDS011;25402;42.004;23.088;2024-03-23T08:37:17;22.95;;;10.88;;
39728;SDS011;25402;42.004;23.088;2024-03-23T08:39:44;23.25;;;9.50;;
39728;SDS011;25402;42.004;23.088;2024-03-23T08:42:12;24.15;;;9.95;;
39728;SDS011;25402;42.004;23.088;2024-03-23T08:44:39;28.05;;;10.05;;
39728;SDS011;25402;42.004;23.088;2024-03-23T08:47:06;22.35;;;8.70;;
39728;SDS011;25402;42.004;23.088;2024-03-23T08:49:33;59.53;;;10.45;;
39728;SDS011;25402;42.004;23.088;2024-03-23T08:51:59;19.50;;;8.55;;
39728;SDS011;25402;42.004;23.088;2024-03-23T08:54:26;20.80;;;8.10;;
39728;SDS011;25402;42.004;23.088;2024-03-23T08:56:52;18.88;;;8.13;;
39728;SDS011;25402;42.004;23.088;2024-03-23T08:59:21;16.63;;;7.63;;
39728;SDS011;25402;42.004;23.088;2024-03-23T09:01:49;14.60;;;7.57;;
39728;SDS011;25402;42.004;23.088;2024-03-23T09:04:16;11.50;;;6.57;;
39728;SDS011;25402;42.004;23.088;2024-03-23T09:06:43;18.77;;;7.82;;
39728;SDS011;25402;42.004;23.088;2024-03-23T09:09:10;15.65;;;6.95;;
39728;SDS011;25402;42.004;23.088;2024-03-23T09:11:38;11.93;;;7.30;;
39728;SDS011;25402;42.004;23.088;2024-03-23T09:14:05;93.65;;;12.50;;
39728;SDS011;25402;42.004;23.088;2024-03-23T09:16:33;20.45;;;7.22;;
39728;SDS011;25402;42.004;23.088;2024-03-23T09:19:00;11.18;;;6.32;;
39728;SDS011;25402;42.004;23.088;2024-03-23T09:21:26;17.05;;;6.65;;
39728;SDS011;25402;42.004;23.088;2024-03-23T09:23:53;11.55;;;6.68;;
39728;SDS011;25402;42.004;23.088;2024-03-23T09:26:19;13.60;;;6.68;;
39728;SDS011;25402;42.004;23.088;2024-03-23T09:28:48;19.83;;;6.10;;
39728;SDS011;25402;42.004;23.088;2024-03-23T09:31:14;12.98;;;6.60;;
39728;SDS011;25402;42.004;23.088;2024-03-23T09:33:45;16.20;;;6.90;;
39728;SDS011;25402;42.004;23.088;2024-03-23T09:36:11;21.23;;;8.25;;
39728;SDS011;25402;42.004;23.088;2024-03-23T09:38:40;12.88;;;6.93;;
39728;SDS011;25402;42.004;23.088;2024-03-23T09:41:07;17.17;;;6.25;;
39728;SDS011;25402;42.004;23.088;2024-03-23T09:43:35;14.32;;;6.25;;
39728;SDS011;25402;42.004;23.088;2024-03-23T09:46:01;11.00;;;6.28;;
39728;SDS011;25402;42.004;23.088;2024-03-23T09:48:29;11.60;;;5.88;;
39728;SDS011;25402;42.004;23.088;2024-03-23T09:50:59;15.60;;;7.10;;
39728;SDS011;25402;42.004;23.088;2024-03-23T09:53:28;13.75;;;6.82;;
39728;SDS011;25402;42.004;23.088;2024-03-23T09:55:55;10.40;;;6.07;;
39728;SDS011;25402;42.004;23.088;2024-03-23T09:58:23;13.23;;;6.22;;
39728;SDS011;25402;42.004;23.088;2024-03-23T10:00:50;12.25;;;5.57;;
39728;SDS011;25402;42.004;23.088;2024-03-23T10:03:17;11.23;;;5.63;;
39728;SDS011;25402;42.004;23.088;2024-03-23T10:05:44;11.00;;;5.50;;
39728;SDS011;25402;42.004;23.088;2024-03-23T10:08:22;13.50;;;5.15;;
39728;SDS011;25402;42.004;23.088;2024-03-23T10:10:48;14.57;;;5.38;;
39728;SDS011;25402;42.004;23.088;2024-03-23T10:13:24;11.25;;;5.53;;
39728;SDS011;25402;42.004;23.088;2024-03-23T10:15:55;10.18;;;5.00;;
39728;SDS011;25402;42.004;23.088;2024-03-23T10:18:24;14.27;;;6.93;;
39728;SDS011;25402;42.004;23.088;2024-03-23T10:20:52;9.05;;;5.00;;
39728;SDS011;25402;42.004;23.088;2024-03-23T10:23:35;10.50;;;4.95;;
39728;SDS011;25402;42.004;23.088;2024-03-23T10:28:53;7.22;;;4.55;;
39728;SDS011;25402;42.004;23.088;2024-03-23T10:31:24;7.38;;;4.38;;
39728;SDS011;25402;42.004;23.088;2024-03-23T10:33:52;10.88;;;4.38;;
39728;SDS011;25402;42.004;23.088;2024-03-23T10:36:19;8.82;;;4.70;;
39728;SDS011;25402;42.004;23.088;2024-03-23T10:38:50;11.32;;;4.38;;
39728;SDS011;25402;42.004;23.088;2024-03-23T10:41:18;8.02;;;4.13;;
39728;SDS011;25402;42.004;23.088;2024-03-23T10:43:49;12.70;;;4.40;;
39728;SDS011;25402;42.004;23.088;2024-03-23T10:46:15;8.65;;;4.55;;
39728;SDS011;25402;42.004;23.088;2024-03-23T10:48:43;7.90;;;4.10;;
39728;SDS011;25402;42.004;23.088;2024-03-23T10:51:09;7.25;;;4.30;;
39728;SDS011;25402;42.004;23.088;2024-03-23T10:53:37;5.53;;;4.03;;
39728;SDS011;25402;42.004;23.088;2024-03-23T10:56:06;8.50;;;4.65;;
39728;SDS011;25402;42.004;23.088;2024-03-23T10:58:37;7.32;;;4.00;;
39728;SDS011;25402;42.004;23.088;2024-03-23T11:01:06;6.75;;;3.85;;
39728;SDS011;25402;42.004;23.088;2024-03-23T11:03:33;10.45;;;4.10;;
39728;SDS011;25402;42.004;23.088;2024-03-23T11:06:04;9.32;;;3.92;;
39728;SDS011;25402;42.004;23.088;2024-03-23T11:08:32;8.48;;;4.15;;
39728;SDS011;25402;42.004;23.088;2024-03-23T11:11:15;8.50;;;3.80;;
39728;SDS011;25402;42.004;23.088;2024-03-23T11:13:47;9.90;;;5.35;;
39728;SDS011;25402;42.004;23.088;2024-03-23T11:16:16;9.80;;;4.00;;
39728;SDS011;25402;42.004;23.088;2024-03-23T11:18:43;9.73;;;4.40;;
39728;SDS011;25402;42.004;23.088;2024-03-23T11:21:10;7.43;;;4.35;;
39728;SDS011;25402;42.004;23.088;2024-03-23T11:24:12;5.35;;;3.90;;
39728;SDS011;25402;42.004;23.088;2024-03-23T11:26:42;12.55;;;4.07;;
39728;SDS011;25402;42.004;23.088;2024-03-23T11:29:09;22.20;;;5.05;;
39728;SDS011;25402;42.004;23.088;2024-03-23T11:31:37;7.35;;;3.65;;
39728;SDS011;25402;42.004;23.088;2024-03-23T11:34:06;8.80;;;4.05;;
39728;SDS011;25402;42.004;23.088;2024-03-23T11:36:32;7.68;;;3.53;;
39728;SDS011;25402;42.004;23.088;2024-03-23T11:39:01;7.60;;;4.03;;
39728;SDS011;25402;42.004;23.088;2024-03-23T11:41:46;8.30;;;4.00;;
39728;SDS011;25402;42.004;23.088;2024-03-23T11:44:14;7.90;;;3.80;;
39728;SDS011;25402;42.004;23.088;2024-03-23T11:46:41;10.80;;;3.97;;
39728;SDS011;25402;42.004;23.088;2024-03-23T11:49:19;5.90;;;3.80;;
39728;SDS011;25402;42.004;23.088;2024-03-23T11:51:47;130.30;;;8.18;;
39728;SDS011;25402;42.004;23.088;2024-03-23T11:54:14;7.28;;;3.30;;
39728;SDS011;25402;42.004;23.088;2024-03-23T11:56:40;13.70;;;3.70;;
39728;SDS011;25402;42.004;23.088;2024-03-23T11:59:31;6.50;;;3.92;;
39728;SDS011;25402;42.004;23.088;2024-03-23T12:01:59;10.40;;;4.07;;
39728;SDS011;25402;42.004;23.088;2024-03-23T12:04:27;9.23;;;3.72;;
39728;SDS011;25402;42.004;23.088;2024-03-23T12:07:10;7.90;;;3.75;;
39728;SDS011;25402;42.004;23.088;2024-03-23T12:09:38;6.07;;;3.63;;
39728;SDS011;25402;42.004;23.088;2024-03-23T12:12:08;6.03;;;3.63;;
39728;SDS011;25402;42.004;23.088;2024-03-23T12:14:38;7.80;;;3.20;;
39728;SDS011;25402;42.004;23.088;2024-03-23T12:17:11;6.32;;;3.25;;
39728;SDS011;25402;42.004;23.088;2024-03-23T12:19:38;4.50;;;2.95;;
39728;SDS011;25402;42.004;23.088;2024-03-23T12:22:06;9.13;;;3.55;;
39728;SDS011;25402;42.004;23.088;2024-03-23T12:24:34;5.00;;;3.35;;
39728;SDS011;25402;42.004;23.088;2024-03-23T12:27:01;4.13;;;2.92;;
39728;SDS011;25402;42.004;23.088;2024-03-23T12:29:30;6.32;;;3.10;;
39728;SDS011;25402;42.004;23.088;2024-03-23T12:31:58;8.30;;;3.00;;
39728;SDS011;25402;42.004;23.088;2024-03-23T12:34:26;4.22;;;2.75;;
39728;SDS011;25402;42.004;23.088;2024-03-23T12:36:52;3.58;;;2.85;;
39728;SDS011;25402;42.004;23.088;2024-03-23T12:39:20;3.95;;;2.47;;
39728;SDS011;25402;42.004;23.088;2024-03-23T12:41:46;8.27;;;3.10;;
39728;SDS011;25402;42.004;23.088;2024-03-23T12:44:14;4.85;;;2.92;;
39728;SDS011;25402;42.004;23.088;2024-03-23T12:46:40;4.85;;;3.03;;
39728;SDS011;25402;42.004;23.088;2024-03-23T12:49:10;4.50;;;2.75;;
39728;SDS011;25402;42.004;23.088;2024-03-23T12:51:36;5.95;;;2.42;;
39728;SDS011;25402;42.004;23.088;2024-03-23T12:54:03;7.18;;;2.30;;
39728;SDS011;25402;42.004;23.088;2024-03-23T12:56:29;3.70;;;2.30;;
39728;SDS011;25402;42.004;23.088;2024-03-23T12:58:57;4.20;;;2.33;;
39728;SDS011;25402;42.004;23.088;2024-03-23T13:01:23;6.72;;;2.63;;
39728;SDS011;25402;42.004;23.088;2024-03-23T13:03:50;3.33;;;2.33;;
39728;SDS011;25402;42.004;23.088;2024-03-23T13:06:18;5.78;;;2.80;;
39728;SDS011;25402;42.004;23.088;2024-03-23T13:08:46;4.70;;;2.83;;
39728;SDS011;25402;42.004;23.088;2024-03-23T13:11:12;4.63;;;2.50;;
39728;SDS011;25402;42.004;23.088;2024-03-23T13:13:41;7.25;;;2.53;;
39728;SDS011;25402;42.004;23.088;2024-03-23T13:16:07;6.85;;;2.92;;
39728;SDS011;25402;42.004;23.088;2024-03-23T13:18:34;3.40;;;2.63;;
39728;SDS011;25402;42.004;23.088;2024-03-23T13:21:00;5.38;;;3.00;;
39728;SDS011;25402;42.004;23.088;2024-03-23T13:23:30;4.63;;;2.47;;
39728;SDS011;25402;42.004;23.088;2024-03-23T13:25:56;4.15;;;2.58;;
39728;SDS011;25402;42.004;23.088;2024-03-23T13:28:23;5.20;;;2.67;;
39728;SDS011;25402;42.004;23.088;2024-03-23T13:30:50;49.55;;;4.32;;
39728;SDS011;25402;42.004;23.088;2024-03-23T13:33:18;9.45;;;2.97;;
39728;SDS011;25402;42.004;23.088;2024-03-23T13:35:51;6.13;;;2.72;;
39728;SDS011;25402;42.004;23.088;2024-03-23T13:38:18;4.40;;;2.85;;
39728;SDS011;25402;42.004;23.088;2024-03-23T13:40:55;8.05;;;5.10;;
39728;SDS011;25402;42.004;23.088;2024-03-23T13:43:24;5.82;;;2.88;;
39728;SDS011;25402;42.004;23.088;2024-03-23T13:45:52;8.48;;;2.53;;
39728;SDS011;25402;42.004;23.088;2024-03-23T13:48:21;3.17;;;2.50;;
39728;SDS011;25402;42.004;23.088;2024-03-23T13:50:56;5.03;;;2.90;;
39728;SDS011;25402;42.004;23.088;2024-03-23T13:53:24;6.55;;;2.75;;
39728;SDS011;25402;42.004;23.088;2024-03-23T13:55:50;12.68;;;3.15;;
39728;SDS011;25402;42.004;23.088;2024-03-23T13:58:18;17.45;;;3.10;;
39728;SDS011;25402;42.004;23.088;2024-03-23T14:00:44;12.77;;;3.13;;
39728;SDS011;25402;42.004;23.088;2024-03-23T14:03:12;6.43;;;2.72;;
39728;SDS011;25402;42.004;23.088;2024-03-23T14:05:39;4.47;;;2.67;;
39728;SDS011;25402;42.004;23.088;2024-03-23T14:08:07;5.18;;;2.85;;
39728;SDS011;25402;42.004;23.088;2024-03-23T14:10:34;6.63;;;2.60;;
39728;SDS011;25402;42.004;23.088;2024-03-23T14:13:02;6.15;;;3.13;;
39728;SDS011;25402;42.004;23.088;2024-03-23T14:15:29;5.80;;;2.80;;
39728;SDS011;25402;42.004;23.088;2024-03-23T14:17:56;5.88;;;2.65;;
39728;SDS011;25402;42.004;23.088;2024-03-23T14:20:23;5.32;;;3.45;;
39728;SDS011;25402;42.004;23.088;2024-03-23T14:22:50;3.58;;;2.90;;
39728;SDS011;25402;42.004;23.088;2024-03-23T14:25:17;6.68;;;3.10;;
39728;SDS011;25402;42.004;23.088;2024-03-23T14:27:45;7.30;;;3.17;;
39728;SDS011;25402;42.004;23.088;2024-03-23T14:30:12;8.57;;;3.40;;
39728;SDS011;25402;42.004;23.088;2024-03-23T14:32:41;7.40;;;3.70;;
39728;SDS011;25402;42.004;23.088;2024-03-23T14:35:07;7.32;;;3.92;;
39728;SDS011;25402;42.004;23.088;2024-03-23T14:37:36;16.65;;;3.67;;
39728;SDS011;25402;42.004;23.088;2024-03-23T14:40:02;7.43;;;3.53;;
39728;SDS011;25402;42.004;23.088;2024-03-23T14:42:30;7.85;;;3.63;;
39728;SDS011;25402;42.004;23.088;2024-03-23T14:44:56;11.50;;;3.90;;
39728;SDS011;25402;42.004;23.088;2024-03-23T14:47:23;7.75;;;3.53;;
39728;SDS011;25402;42.004;23.088;2024-03-23T14:49:51;6.60;;;4.03;;
39728;SDS011;25402;42.004;23.088;2024-03-23T14:52:18;6.10;;;3.40;;
39728;SDS011;25402;42.004;23.088;2024-03-23T14:54:44;19.42;;;4.07;;
39728;SDS011;25402;42.004;23.088;2024-03-23T14:57:12;14.18;;;4.13;;
39728;SDS011;25402;42.004;23.088;2024-03-23T14:59:38;8.38;;;3.45;;
39728;SDS011;25402;42.004;23.088;2024-03-23T15:02:05;8.80;;;3.63;;
39728;SDS011;25402;42.004;23.088;2024-03-23T15:04:32;7.30;;;3.58;;
39728;SDS011;25402;42.004;23.088;2024-03-23T15:07:00;45.85;;;5.30;;
39728;SDS011;25402;42.004;23.088;2024-03-23T15:09:26;15.30;;;4.07;;
39728;SDS011;25402;42.004;23.088;2024-03-23T15:11:53;10.10;;;4.20;;
39728;SDS011;25402;42.004;23.088;2024-03-23T15:14:21;22.60;;;3.95;;
39728;SDS011;25402;42.004;23.088;2024-03-23T15:16:48;5.13;;;3.53;;
39728;SDS011;25402;42.004;23.088;2024-03-23T15:19:14;6.00;;;3.40;;
39728;SDS011;25402;42.004;23.088;2024-03-23T15:21:42;10.43;;;3.80;;
39728;SDS011;25402;42.004;23.088;2024-03-23T15:24:10;9.82;;;4.10;;